sensor_id;sensor_type;location;lat;lon;timestamp;P1;durP1;ratioP1;P2;durP2;ratioP2
69854;SDS011;57146;48.140;16.304;2023-06-26T00:01:47;6.53;;;2.28;;
69854;SDS011;57146;48.140;16.304;2023-06-26T00:04:16;5.60;;;2.60;;
69854;SDS011;57146;48.140;16.304;2023-06-26T00:06:44;7.33;;;2.50;;
69854;SDS011;57146;48.140;16.304;2023-06-26T00:09:11;5.80;;;2.35;;
69854;SDS011;57146;48.140;16.304;2023-06-26T00:11:39;6.13;;;2.10;;
69854;SDS011;57146;48.140;16.304;2023-06-26T00:14:06;4.55;;;1.77;;
69854;SDS011;57146;48.140;16.304;2023-06-26T00:16:33;5.82;;;2.20;;
69854;SDS011;57146;48.140;16.304;2023-06-26T00:19:00;6.07;;;2.10;;
69854;SDS011;57146;48.140;16.304;2023-06-26T00:21:27;5.60;;;2.22;;
69854;SDS011;57146;48.140;16.304;2023-06-26T00:23:54;4.72;;;1.80;;
69854;SDS011;57146;48.140;16.304;2023-06-26T00:26:21;5.45;;;2.22;;
69854;SDS011;57146;48.140;16.304;2023-06-26T00:28:49;5.68;;;2.13;;
69854;SDS011;57146;48.140;16.304;2023-06-26T00:31:16;5.40;;;1.97;;
69854;SDS011;57146;48.140;16.304;2023-06-26T00:33:44;5.78;;;1.90;;
69854;SDS011;57146;48.140;16.304;2023-06-26T00:36:11;7.10;;;2.45;;
69854;SDS011;57146;48.140;16.304;2023-06-26T00:38:38;5.25;;;1.90;;
69854;SDS011;57146;48.140;16.304;2023-06-26T00:41:06;5.72;;;1.98;;
69854;SDS011;57146;48.140;16.304;2023-06-26T00:43:33;6.07;;;2.00;;
69854;SDS011;57146;48.140;16.304;2023-06-26T00:46:00;5.85;;;2.13;;
69854;SDS011;57146;48.140;16.304;2023-06-26T00:48:28;5.43;;;2.05;;
69854;SDS011;57146;48.140;16.304;2023-06-26T00:50:56;6.13;;;2.30;;
69854;SDS011;57146;48.140;16.304;2023-06-26T00:53:25;6.32;;;1.92;;
69854;SDS011;57146;48.140;16.304;2023-06-26T00:55:52;6.07;;;1.97;;
69854;SDS011;57146;48.140;16.304;2023-06-26T00:58:21;5.80;;;1.92;;
69854;SDS011;57146;48.140;16.304;2023-06-26T01:00:51;5.60;;;1.85;;
69854;SDS011;57146;48.140;16.304;2023-06-26T01:03:19;6.03;;;2.03;;
69854;SDS011;57146;48.140;16.304;2023-06-26T01:05:47;5.05;;;1.98;;
69854;SDS011;57146;48.140;16.304;2023-06-26T01:08:17;5.13;;;2.00;;
69854;SDS011;57146;48.140;16.304;2023-06-26T01:10:45;5.47;;;2.00;;
69854;SDS011;57146;48.140;16.304;2023-06-26T01:13:14;5.18;;;2.10;;
69854;SDS011;57146;48.140;16.304;2023-06-26T01:15:42;5.95;;;1.98;;
69854;SDS011;57146;48.140;16.304;2023-06-26T01:18:10;5.10;;;1.90;;
69854;SDS011;57146;48.140;16.304;2023-06-26T01:20:39;4.87;;;1.90;;
69854;SDS011;57146;48.140;16.304;2023-06-26T01:26:26;5.85;;;2.10;;
69854;SDS011;57146;48.140;16.304;2023-06-26T01:28:41;5.25;;;1.83;;
69854;SDS011;57146;48.140;16.304;2023-06-26T01:31:09;5.43;;;2.10;;
69854;SDS011;57146;48.140;16.304;2023-06-26T01:33:39;5.90;;;1.90;;
69854;SDS011;57146;48.140;16.304;2023-06-26T01:36:08;5.20;;;1.98;;
69854;SDS011;57146;48.140;16.304;2023-06-26T01:38:36;5.72;;;2.25;;
69854;SDS011;57146;48.140;16.304;2023-06-26T01:41:04;6.07;;;2.00;;
69854;SDS011;57146;48.140;16.304;2023-06-26T01:46:16;5.27;;;1.97;;
69854;SDS011;57146;48.140;16.304;2023-06-26T01:49:03;5.47;;;2.40;;
69854;SDS011;57146;48.140;16.304;2023-06-26T01:52:03;6.40;;;1.90;;
69854;SDS011;57146;48.140;16.304;2023-06-26T01:57:39;6.63;;;1.90;;
69854;SDS011;57146;48.140;16.304;2023-06-26T02:00:08;7.40;;;2.27;;
69854;SDS011;57146;48.140;16.304;2023-06-26T02:02:41;5.53;;;1.92;;
69854;SDS011;57146;48.140;16.304;2023-06-26T02:05:12;5.43;;;1.85;;
69854;SDS011;57146;48.140;16.304;2023-06-26T02:07:39;5.57;;;1.80;;
69854;SDS011;57146;48.140;16.304;2023-06-26T02:10:07;6.68;;;2.20;;
69854;SDS011;57146;48.140;16.304;2023-06-26T02:12:37;5.07;;;1.97;;
69854;SDS011;57146;48.140;16.304;2023-06-26T02:15:04;6.63;;;2.03;;
69854;SDS011;57146;48.140;16.304;2023-06-26T02:17:32;6.13;;;2.15;;
69854;SDS011;57146;48.140;16.304;2023-06-26T02:20:00;6.30;;;2.08;;
69854;SDS011;57146;48.140;16.304;2023-06-26T02:22:27;5.65;;;2.22;;
69854;SDS011;57146;48.140;16.304;2023-06-26T02:24:55;6.37;;;2.17;;
69854;SDS011;57146;48.140;16.304;2023-06-26T02:27:23;7.38;;;2.30;;
69854;SDS011;57146;48.140;16.304;2023-06-26T02:29:52;5.45;;;1.80;;
69854;SDS011;57146;48.140;16.304;2023-06-26T02:32:19;5.47;;;1.85;;
69854;SDS011;57146;48.140;16.304;2023-06-26T02:34:49;5.78;;;2.10;;
69854;SDS011;57146;48.140;16.304;2023-06-26T02:37:16;5.77;;;2.10;;
69854;SDS011;57146;48.140;16.304;2023-06-26T02:39:43;6.63;;;2.13;;
69854;SDS011;57146;48.140;16.304;2023-06-26T02:42:38;5.57;;;2.10;;
69854;SDS011;57146;48.140;16.304;2023-06-26T02:45:05;4.47;;;1.88;;
69854;SDS011;57146;48.140;16.304;2023-06-26T02:47:33;4.72;;;1.63;;
69854;SDS011;57146;48.140;16.304;2023-06-26T02:50:00;5.63;;;2.07;;
69854;SDS011;57146;48.140;16.304;2023-06-26T02:52:40;6.07;;;1.85;;
69854;SDS011;57146;48.140;16.304;2023-06-26T02:55:07;5.50;;;1.73;;
69854;SDS011;57146;48.140;16.304;2023-06-26T02:57:38;5.40;;;1.77;;
69854;SDS011;57146;48.140;16.304;2023-06-26T03:00:05;5.20;;;1.90;;
69854;SDS011;57146;48.140;16.304;2023-06-26T03:02:37;5.87;;;1.80;;
69854;SDS011;57146;48.140;16.304;2023-06-26T03:05:09;6.32;;;1.70;;
69854;SDS011;57146;48.140;16.304;2023-06-26T03:07:37;4.68;;;1.70;;
69854;SDS011;57146;48.140;16.304;2023-06-26T03:10:04;4.57;;;1.67;;
69854;SDS011;57146;48.140;16.304;2023-06-26T03:12:33;6.03;;;1.75;;
69854;SDS011;57146;48.140;16.304;2023-06-26T03:15:00;5.27;;;1.77;;
69854;SDS011;57146;48.140;16.304;2023-06-26T03:17:27;5.80;;;2.10;;
69854;SDS011;57146;48.140;16.304;2023-06-26T03:20:01;6.10;;;2.10;;
69854;SDS011;57146;48.140;16.304;2023-06-26T03:22:38;5.97;;;2.20;;
69854;SDS011;57146;48.140;16.304;2023-06-26T03:25:06;6.85;;;2.10;;
69854;SDS011;57146;48.140;16.304;2023-06-26T03:27:34;5.50;;;2.13;;
69854;SDS011;57146;48.140;16.304;2023-06-26T03:30:02;4.97;;;1.85;;
69854;SDS011;57146;48.140;16.304;2023-06-26T03:32:29;5.95;;;1.88;;
69854;SDS011;57146;48.140;16.304;2023-06-26T03:34:56;4.97;;;1.90;;
69854;SDS011;57146;48.140;16.304;2023-06-26T03:37:23;5.75;;;2.20;;
69854;SDS011;57146;48.140;16.304;2023-06-26T03:39:51;6.53;;;1.93;;
69854;SDS011;57146;48.140;16.304;2023-06-26T03:42:43;6.10;;;2.17;;
69854;SDS011;57146;48.140;16.304;2023-06-26T03:45:12;5.53;;;2.40;;
69854;SDS011;57146;48.140;16.304;2023-06-26T03:47:42;5.95;;;2.10;;
69854;SDS011;57146;48.140;16.304;2023-06-26T03:50:09;7.53;;;1.90;;
69854;SDS011;57146;48.140;16.304;2023-06-26T03:52:36;4.90;;;1.83;;
69854;SDS011;57146;48.140;16.304;2023-06-26T03:55:05;5.03;;;1.75;;
69854;SDS011;57146;48.140;16.304;2023-06-26T03:57:36;5.47;;;2.08;;
69854;SDS011;57146;48.140;16.304;2023-06-26T04:00:03;5.32;;;1.90;;
69854;SDS011;57146;48.140;16.304;2023-06-26T04:02:40;5.60;;;1.90;;
69854;SDS011;57146;48.140;16.304;2023-06-26T04:05:08;6.87;;;2.30;;
69854;SDS011;57146;48.140;16.304;2023-06-26T04:07:35;6.13;;;2.20;;
69854;SDS011;57146;48.140;16.304;2023-06-26T04:10:05;6.53;;;2.40;;
69854;SDS011;57146;48.140;16.304;2023-06-26T04:12:34;5.95;;;2.45;;
69854;SDS011;57146;48.140;16.304;2023-06-26T04:15:01;6.95;;;2.33;;
69854;SDS011;57146;48.140;16.304;2023-06-26T04:17:30;6.07;;;2.40;;
69854;SDS011;57146;48.140;16.304;2023-06-26T04:19:57;5.78;;;2.13;;
69854;SDS011;57146;48.140;16.304;2023-06-26T04:22:30;7.82;;;2.50;;
69854;SDS011;57146;48.140;16.304;2023-06-26T04:24:57;6.50;;;2.22;;
69854;SDS011;57146;48.140;16.304;2023-06-26T04:27:24;5.72;;;2.35;;
69854;SDS011;57146;48.140;16.304;2023-06-26T04:29:52;7.67;;;2.63;;
69854;SDS011;57146;48.140;16.304;2023-06-26T04:32:21;6.90;;;2.67;;
69854;SDS011;57146;48.140;16.304;2023-06-26T04:34:49;6.40;;;2.53;;
69854;SDS011;57146;48.140;16.304;2023-06-26T04:37:16;6.18;;;2.20;;
69854;SDS011;57146;48.140;16.304;2023-06-26T04:39:43;7.65;;;2.80;;
69854;SDS011;57146;48.140;16.304;2023-06-26T04:42:11;7.17;;;2.53;;
69854;SDS011;57146;48.140;16.304;2023-06-26T04:44:39;7.55;;;3.13;;
69854;SDS011;57146;48.140;16.304;2023-06-26T04:47:07;6.80;;;2.90;;
69854;SDS011;57146;48.140;16.304;2023-06-26T04:49:35;6.68;;;2.75;;
69854;SDS011;57146;48.140;16.304;2023-06-26T04:52:04;7.05;;;2.83;;
69854;SDS011;57146;48.140;16.304;2023-06-26T04:54:32;5.80;;;2.40;;
69854;SDS011;57146;48.140;16.304;2023-06-26T04:57:01;7.63;;;3.03;;
69854;SDS011;57146;48.140;16.304;2023-06-26T04:59:28;8.52;;;3.20;;
69854;SDS011;57146;48.140;16.304;2023-06-26T05:01:55;6.68;;;2.72;;
69854;SDS011;57146;48.140;16.304;2023-06-26T05:04:22;7.55;;;3.20;;
69854;SDS011;57146;48.140;16.304;2023-06-26T05:06:49;7.67;;;3.20;;
69854;SDS011;57146;48.140;16.304;2023-06-26T05:09:16;7.47;;;3.28;;
69854;SDS011;57146;48.140;16.304;2023-06-26T05:11:44;7.45;;;3.15;;
69854;SDS011;57146;48.140;16.304;2023-06-26T05:14:11;7.05;;;2.88;;
69854;SDS011;57146;48.140;16.304;2023-06-26T05:16:39;7.25;;;3.15;;
69854;SDS011;57146;48.140;16.304;2023-06-26T05:19:06;12.43;;;3.60;;
69854;SDS011;57146;48.140;16.304;2023-06-26T05:21:35;16.15;;;3.88;;
69854;SDS011;57146;48.140;16.304;2023-06-26T05:24:03;10.00;;;2.97;;
69854;SDS011;57146;48.140;16.304;2023-06-26T05:26:31;7.57;;;3.03;;
69854;SDS011;57146;48.140;16.304;2023-06-26T05:28:59;10.73;;;3.28;;
69854;SDS011;57146;48.140;16.304;2023-06-26T05:31:26;10.77;;;2.83;;
69854;SDS011;57146;48.140;16.304;2023-06-26T05:33:53;13.65;;;3.20;;
69854;SDS011;57146;48.140;16.304;2023-06-26T05:36:29;6.53;;;2.97;;
69854;SDS011;57146;48.140;16.304;2023-06-26T05:38:59;8.93;;;3.47;;
69854;SDS011;57146;48.140;16.304;2023-06-26T05:41:26;19.15;;;3.70;;
69854;SDS011;57146;48.140;16.304;2023-06-26T05:43:53;8.70;;;3.30;;
69854;SDS011;57146;48.140;16.304;2023-06-26T05:46:22;8.05;;;3.08;;
69854;SDS011;57146;48.140;16.304;2023-06-26T05:48:50;16.38;;;4.15;;
69854;SDS011;57146;48.140;16.304;2023-06-26T05:51:16;9.25;;;3.03;;
69854;SDS011;57146;48.140;16.304;2023-06-26T05:53:44;8.32;;;3.60;;
69854;SDS011;57146;48.140;16.304;2023-06-26T05:56:15;7.27;;;3.43;;
69854;SDS011;57146;48.140;16.304;2023-06-26T05:58:42;6.47;;;2.97;;
69854;SDS011;57146;48.140;16.304;2023-06-26T06:01:10;8.40;;;3.78;;
69854;SDS011;57146;48.140;16.304;2023-06-26T06:03:39;10.30;;;3.10;;
69854;SDS011;57146;48.140;16.304;2023-06-26T06:06:06;26.00;;;3.83;;
69854;SDS011;57146;48.140;16.304;2023-06-26T06:08:34;9.73;;;2.77;;
69854;SDS011;57146;48.140;16.304;2023-06-26T06:11:03;11.65;;;3.20;;
69854;SDS011;57146;48.140;16.304;2023-06-26T06:13:30;5.78;;;2.25;;
69854;SDS011;57146;48.140;16.304;2023-06-26T06:15:58;7.32;;;2.10;;
69854;SDS011;57146;48.140;16.304;2023-06-26T06:18:26;5.20;;;1.85;;
69854;SDS011;57146;48.140;16.304;2023-06-26T06:20:53;7.23;;;1.70;;
69854;SDS011;57146;48.140;16.304;2023-06-26T06:23:20;5.60;;;2.00;;
69854;SDS011;57146;48.140;16.304;2023-06-26T06:25:48;6.72;;;2.33;;
69854;SDS011;57146;48.140;16.304;2023-06-26T06:28:16;4.30;;;1.52;;
69854;SDS011;57146;48.140;16.304;2023-06-26T06:30:43;7.57;;;1.92;;
69854;SDS011;57146;48.140;16.304;2023-06-26T06:33:12;5.30;;;2.10;;
69854;SDS011;57146;48.140;16.304;2023-06-26T06:35:39;5.60;;;2.10;;
69854;SDS011;57146;48.140;16.304;2023-06-26T06:38:06;5.78;;;1.88;;
69854;SDS011;57146;48.140;16.304;2023-06-26T06:40:33;4.22;;;1.60;;
69854;SDS011;57146;48.140;16.304;2023-06-26T06:43:01;8.20;;;1.80;;
69854;SDS011;57146;48.140;16.304;2023-06-26T06:45:29;5.63;;;1.80;;
69854;SDS011;57146;48.140;16.304;2023-06-26T06:47:56;4.28;;;1.75;;
69854;SDS011;57146;48.140;16.304;2023-06-26T06:50:23;7.60;;;2.17;;
69854;SDS011;57146;48.140;16.304;2023-06-26T06:52:50;3.47;;;1.23;;
69854;SDS011;57146;48.140;16.304;2023-06-26T06:55:19;5.25;;;1.70;;
69854;SDS011;57146;48.140;16.304;2023-06-26T06:57:46;5.20;;;1.73;;
69854;SDS011;57146;48.140;16.304;2023-06-26T07:00:13;8.05;;;1.95;;
69854;SDS011;57146;48.140;16.304;2023-06-26T07:02:42;4.10;;;1.60;;
69854;SDS011;57146;48.140;16.304;2023-06-26T07:05:10;6.68;;;1.90;;
69854;SDS011;57146;48.140;16.304;2023-06-26T07:07:38;6.60;;;1.88;;
69854;SDS011;57146;48.140;16.304;2023-06-26T07:10:08;4.40;;;1.70;;
69854;SDS011;57146;48.140;16.304;2023-06-26T07:12:37;5.50;;;1.98;;
69854;SDS011;57146;48.140;16.304;2023-06-26T07:15:08;5.45;;;1.90;;
69854;SDS011;57146;48.140;16.304;2023-06-26T07:17:36;5.40;;;2.00;;
69854;SDS011;57146;48.140;16.304;2023-06-26T07:20:03;8.38;;;1.85;;
69854;SDS011;57146;48.140;16.304;2023-06-26T07:22:30;4.23;;;1.87;;
69854;SDS011;57146;48.140;16.304;2023-06-26T07:24:57;4.78;;;2.10;;
69854;SDS011;57146;48.140;16.304;2023-06-26T07:27:28;4.68;;;1.90;;
69854;SDS011;57146;48.140;16.304;2023-06-26T07:29:55;18.63;;;3.33;;
69854;SDS011;57146;48.140;16.304;2023-06-26T07:32:22;6.35;;;1.85;;
69854;SDS011;57146;48.140;16.304;2023-06-26T07:34:56;5.10;;;1.80;;
69854;SDS011;57146;48.140;16.304;2023-06-26T07:37:23;7.28;;;1.88;;
69854;SDS011;57146;48.140;16.304;2023-06-26T07:39:51;4.95;;;1.90;;
69854;SDS011;57146;48.140;16.304;2023-06-26T07:42:18;5.47;;;1.92;;
69854;SDS011;57146;48.140;16.304;2023-06-26T07:44:44;4.53;;;1.98;;
69854;SDS011;57146;48.140;16.304;2023-06-26T07:47:11;5.30;;;1.70;;
69854;SDS011;57146;48.140;16.304;2023-06-26T07:49:39;4.10;;;1.40;;
69854;SDS011;57146;48.140;16.304;2023-06-26T07:52:07;4.78;;;1.60;;
69854;SDS011;57146;48.140;16.304;2023-06-26T07:54:34;2.90;;;0.95;;
69854;SDS011;57146;48.140;16.304;2023-06-26T07:57:02;4.45;;;1.67;;
69854;SDS011;57146;48.140;16.304;2023-06-26T07:59:30;4.60;;;1.70;;
69854;SDS011;57146;48.140;16.304;2023-06-26T08:01:58;5.55;;;1.80;;
69854;SDS011;57146;48.140;16.304;2023-06-26T08:04:27;5.68;;;1.50;;
69854;SDS011;57146;48.140;16.304;2023-06-26T08:06:55;6.53;;;1.77;;
69854;SDS011;57146;48.140;16.304;2023-06-26T08:09:26;4.95;;;2.17;;
69854;SDS011;57146;48.140;16.304;2023-06-26T08:11:54;4.00;;;1.70;;
69854;SDS011;57146;48.140;16.304;2023-06-26T08:14:22;6.50;;;2.05;;
69854;SDS011;57146;48.140;16.304;2023-06-26T08:16:49;4.90;;;2.22;;
69854;SDS011;57146;48.140;16.304;2023-06-26T08:19:16;4.55;;;1.90;;
69854;SDS011;57146;48.140;16.304;2023-06-26T08:21:44;5.55;;;1.77;;
69854;SDS011;57146;48.140;16.304;2023-06-26T08:24:12;6.10;;;1.57;;
69854;SDS011;57146;48.140;16.304;2023-06-26T08:26:41;5.10;;;2.10;;
69854;SDS011;57146;48.140;16.304;2023-06-26T08:29:08;4.80;;;1.90;;
69854;SDS011;57146;48.140;16.304;2023-06-26T08:31:39;8.48;;;2.28;;
69854;SDS011;57146;48.140;16.304;2023-06-26T08:34:08;8.50;;;2.38;;
69854;SDS011;57146;48.140;16.304;2023-06-26T08:36:35;18.67;;;3.17;;
69854;SDS011;57146;48.140;16.304;2023-06-26T08:39:02;18.83;;;3.22;;
69854;SDS011;57146;48.140;16.304;2023-06-26T08:41:29;6.60;;;2.35;;
69854;SDS011;57146;48.140;16.304;2023-06-26T08:43:56;12.02;;;2.65;;
69854;SDS011;57146;48.140;16.304;2023-06-26T08:46:23;5.65;;;2.20;;
69854;SDS011;57146;48.140;16.304;2023-06-26T08:49:14;4.70;;;1.97;;
69854;SDS011;57146;48.140;16.304;2023-06-26T08:51:57;6.03;;;2.50;;
69854;SDS011;57146;48.140;16.304;2023-06-26T08:54:31;6.22;;;2.30;;
69854;SDS011;57146;48.140;16.304;2023-06-26T08:57:03;4.85;;;2.33;;
69854;SDS011;57146;48.140;16.304;2023-06-26T08:59:32;6.03;;;2.50;;
69854;SDS011;57146;48.140;16.304;2023-06-26T09:01:59;6.17;;;2.37;;
69854;SDS011;57146;48.140;16.304;2023-06-26T09:04:27;4.60;;;2.03;;
69854;SDS011;57146;48.140;16.304;2023-06-26T09:06:54;4.82;;;2.40;;
69854;SDS011;57146;48.140;16.304;2023-06-26T09:09:21;4.88;;;2.17;;
69854;SDS011;57146;48.140;16.304;2023-06-26T09:11:50;7.40;;;2.55;;
69854;SDS011;57146;48.140;16.304;2023-06-26T09:14:17;19.83;;;3.90;;
69854;SDS011;57146;48.140;16.304;2023-06-26T09:16:45;6.28;;;2.83;;
69854;SDS011;57146;48.140;16.304;2023-06-26T09:19:12;7.82;;;3.13;;
69854;SDS011;57146;48.140;16.304;2023-06-26T09:21:40;7.90;;;2.85;;
69854;SDS011;57146;48.140;16.304;2023-06-26T09:24:08;8.70;;;2.85;;
69854;SDS011;57146;48.140;16.304;2023-06-26T09:26:39;7.87;;;2.90;;
69854;SDS011;57146;48.140;16.304;2023-06-26T09:29:07;6.72;;;2.60;;
69854;SDS011;57146;48.140;16.304;2023-06-26T09:31:38;5.25;;;2.45;;
69854;SDS011;57146;48.140;16.304;2023-06-26T09:34:10;6.57;;;2.60;;
69854;SDS011;57146;48.140;16.304;2023-06-26T09:37:02;9.80;;;2.83;;
69854;SDS011;57146;48.140;16.304;2023-06-26T09:39:55;5.00;;;2.30;;
69854;SDS011;57146;48.140;16.304;2023-06-26T09:42:23;9.98;;;3.33;;
69854;SDS011;57146;48.140;16.304;2023-06-26T09:44:51;12.45;;;3.28;;
69854;SDS011;57146;48.140;16.304;2023-06-26T09:47:18;5.93;;;2.55;;
69854;SDS011;57146;48.140;16.304;2023-06-26T09:49:48;7.55;;;2.90;;
69854;SDS011;57146;48.140;16.304;2023-06-26T09:52:17;4.97;;;2.27;;
69854;SDS011;57146;48.140;16.304;2023-06-26T09:54:45;10.40;;;2.25;;
69854;SDS011;57146;48.140;16.304;2023-06-26T09:57:16;4.95;;;2.30;;
69854;SDS011;57146;48.140;16.304;2023-06-26T09:59:45;5.43;;;2.42;;
69854;SDS011;57146;48.140;16.304;2023-06-26T10:02:12;4.45;;;2.15;;
69854;SDS011;57146;48.140;16.304;2023-06-26T10:04:39;5.33;;;2.27;;
69854;SDS011;57146;48.140;16.304;2023-06-26T10:07:11;5.38;;;2.25;;
69854;SDS011;57146;48.140;16.304;2023-06-26T10:09:42;5.47;;;2.28;;
69854;SDS011;57146;48.140;16.304;2023-06-26T10:12:18;4.00;;;2.08;;
69854;SDS011;57146;48.140;16.304;2023-06-26T10:14:52;4.22;;;2.03;;
69854;SDS011;57146;48.140;16.304;2023-06-26T10:17:20;5.90;;;2.30;;
69854;SDS011;57146;48.140;16.304;2023-06-26T10:19:48;3.83;;;1.90;;
69854;SDS011;57146;48.140;16.304;2023-06-26T10:22:16;3.88;;;1.95;;
69854;SDS011;57146;48.140;16.304;2023-06-26T10:24:45;4.60;;;2.83;;
69854;SDS011;57146;48.140;16.304;2023-06-26T10:27:17;93.97;;;8.45;;
69854;SDS011;57146;48.140;16.304;2023-06-26T10:29:55;5.63;;;2.13;;
69854;SDS011;57146;48.140;16.304;2023-06-26T10:32:25;4.70;;;1.85;;
69854;SDS011;57146;48.140;16.304;2023-06-26T10:34:55;4.93;;;2.40;;
69854;SDS011;57146;48.140;16.304;2023-06-26T10:40:11;6.47;;;1.98;;
69854;SDS011;57146;48.140;16.304;2023-06-26T10:42:39;4.90;;;2.07;;
69854;SDS011;57146;48.140;16.304;2023-06-26T10:47:37;5.60;;;2.47;;
69854;SDS011;57146;48.140;16.304;2023-06-26T10:50:20;5.20;;;2.15;;
69854;SDS011;57146;48.140;16.304;2023-06-26T10:53:07;5.25;;;2.20;;
69854;SDS011;57146;48.140;16.304;2023-06-26T10:55:43;4.67;;;2.00;;
69854;SDS011;57146;48.140;16.304;2023-06-26T10:58:40;7.15;;;2.45;;
69854;SDS011;57146;48.140;16.304;2023-06-26T11:03:42;7.38;;;2.33;;
69854;SDS011;57146;48.140;16.304;2023-06-26T11:06:14;8.10;;;2.63;;
69854;SDS011;57146;48.140;16.304;2023-06-26T11:08:50;7.17;;;2.23;;
69854;SDS011;57146;48.140;16.304;2023-06-26T11:11:22;7.10;;;2.40;;
69854;SDS011;57146;48.140;16.304;2023-06-26T11:14:22;4.13;;;1.80;;
69854;SDS011;57146;48.140;16.304;2023-06-26T11:16:50;6.47;;;2.00;;
69854;SDS011;57146;48.140;16.304;2023-06-26T11:19:19;4.47;;;1.70;;
69854;SDS011;57146;48.140;16.304;2023-06-26T11:22:12;3.13;;;1.30;;
69854;SDS011;57146;48.140;16.304;2023-06-26T11:24:44;4.10;;;1.65;;
69854;SDS011;57146;48.140;16.304;2023-06-26T11:27:12;4.88;;;2.08;;
69854;SDS011;57146;48.140;16.304;2023-06-26T11:30:05;4.70;;;1.73;;
69854;SDS011;57146;48.140;16.304;2023-06-26T11:32:38;6.72;;;1.88;;
69854;SDS011;57146;48.140;16.304;2023-06-26T11:35:05;11.83;;;2.53;;
69854;SDS011;57146;48.140;16.304;2023-06-26T11:37:32;4.65;;;2.00;;
69854;SDS011;57146;48.140;16.304;2023-06-26T11:40:22;3.67;;;1.73;;
69854;SDS011;57146;48.140;16.304;2023-06-26T11:42:48;10.23;;;2.10;;
69854;SDS011;57146;48.140;16.304;2023-06-26T11:45:16;4.13;;;2.10;;
69854;SDS011;57146;48.140;16.304;2023-06-26T11:47:43;4.20;;;2.20;;
69854;SDS011;57146;48.140;16.304;2023-06-26T11:50:14;4.05;;;2.10;;
69854;SDS011;57146;48.140;16.304;2023-06-26T11:53:08;4.65;;;2.40;;
69854;SDS011;57146;48.140;16.304;2023-06-26T11:55:41;4.88;;;2.10;;
69854;SDS011;57146;48.140;16.304;2023-06-26T11:58:08;5.15;;;2.20;;
69854;SDS011;57146;48.140;16.304;2023-06-26T12:00:40;4.23;;;2.10;;
69854;SDS011;57146;48.140;16.304;2023-06-26T12:03:08;6.55;;;2.47;;
69854;SDS011;57146;48.140;16.304;2023-06-26T12:05:35;6.15;;;2.28;;
69854;SDS011;57146;48.140;16.304;2023-06-26T12:08:09;9.90;;;2.30;;
69854;SDS011;57146;48.140;16.304;2023-06-26T12:10:37;3.88;;;2.13;;
69854;SDS011;57146;48.140;16.304;2023-06-26T12:13:08;5.03;;;1.97;;
69854;SDS011;57146;48.140;16.304;2023-06-26T12:15:35;5.65;;;1.98;;
69854;SDS011;57146;48.140;16.304;2023-06-26T12:18:08;4.57;;;2.00;;
69854;SDS011;57146;48.140;16.304;2023-06-26T12:20:39;4.15;;;2.20;;
69854;SDS011;57146;48.140;16.304;2023-06-26T12:23:12;7.72;;;2.80;;
69854;SDS011;57146;48.140;16.304;2023-06-26T12:25:39;23.23;;;4.03;;
69854;SDS011;57146;48.140;16.304;2023-06-26T12:28:17;5.57;;;2.45;;
69854;SDS011;57146;48.140;16.304;2023-06-26T12:31:11;4.47;;;2.00;;
69854;SDS011;57146;48.140;16.304;2023-06-26T12:33:39;5.07;;;1.98;;
69854;SDS011;57146;48.140;16.304;2023-06-26T12:36:10;4.35;;;2.25;;
69854;SDS011;57146;48.140;16.304;2023-06-26T12:39:05;3.77;;;2.07;;
69854;SDS011;57146;48.140;16.304;2023-06-26T12:42:00;4.45;;;2.13;;
69854;SDS011;57146;48.140;16.304;2023-06-26T12:44:33;6.72;;;2.40;;
69854;SDS011;57146;48.140;16.304;2023-06-26T12:47:00;4.32;;;2.30;;
69854;SDS011;57146;48.140;16.304;2023-06-26T12:49:36;4.40;;;2.30;;
69854;SDS011;57146;48.140;16.304;2023-06-26T12:52:29;4.20;;;2.23;;
69854;SDS011;57146;48.140;16.304;2023-06-26T12:54:57;5.32;;;2.60;;
69854;SDS011;57146;48.140;16.304;2023-06-26T12:57:24;4.72;;;2.63;;
69854;SDS011;57146;48.140;16.304;2023-06-26T12:59:52;5.32;;;2.58;;
69854;SDS011;57146;48.140;16.304;2023-06-26T13:02:19;7.95;;;2.85;;
69854;SDS011;57146;48.140;16.304;2023-06-26T13:04:46;24.60;;;4.03;;
69854;SDS011;57146;48.140;16.304;2023-06-26T13:07:13;6.75;;;2.63;;
69854;SDS011;57146;48.140;16.304;2023-06-26T13:10:06;5.00;;;2.78;;
69854;SDS011;57146;48.140;16.304;2023-06-26T13:12:34;5.75;;;2.80;;
69854;SDS011;57146;48.140;16.304;2023-06-26T13:15:01;8.05;;;3.15;;
69854;SDS011;57146;48.140;16.304;2023-06-26T13:17:29;5.57;;;2.77;;
69854;SDS011;57146;48.140;16.304;2023-06-26T13:19:56;5.00;;;2.20;;
69854;SDS011;57146;48.140;16.304;2023-06-26T13:22:23;5.60;;;2.78;;
69854;SDS011;57146;48.140;16.304;2023-06-26T13:24:50;6.22;;;3.20;;
69854;SDS011;57146;48.140;16.304;2023-06-26T13:27:17;5.00;;;2.83;;
69854;SDS011;57146;48.140;16.304;2023-06-26T13:29:44;6.23;;;3.00;;
69854;SDS011;57146;48.140;16.304;2023-06-26T13:32:10;4.68;;;3.10;;
69854;SDS011;57146;48.140;16.304;2023-06-26T13:34:39;6.05;;;3.15;;
69854;SDS011;57146;48.140;16.304;2023-06-26T13:37:06;6.93;;;3.10;;
69854;SDS011;57146;48.140;16.304;2023-06-26T13:39:33;5.72;;;3.42;;
69854;SDS011;57146;48.140;16.304;2023-06-26T13:41:59;6.60;;;3.30;;
69854;SDS011;57146;48.140;16.304;2023-06-26T13:44:29;7.40;;;3.70;;
69854;SDS011;57146;48.140;16.304;2023-06-26T13:47:12;6.25;;;3.63;;
69854;SDS011;57146;48.140;16.304;2023-06-26T13:49:40;10.38;;;3.50;;
69854;SDS011;57146;48.140;16.304;2023-06-26T13:52:32;6.28;;;3.55;;
69854;SDS011;57146;48.140;16.304;2023-06-26T13:55:00;5.50;;;3.37;;
69854;SDS011;57146;48.140;16.304;2023-06-26T13:57:27;6.93;;;3.70;;
69854;SDS011;57146;48.140;16.304;2023-06-26T13:59:57;10.32;;;4.07;;
69854;SDS011;57146;48.140;16.304;2023-06-26T14:02:23;7.70;;;3.72;;
69854;SDS011;57146;48.140;16.304;2023-06-26T14:04:51;6.95;;;4.13;;
69854;SDS011;57146;48.140;16.304;2023-06-26T14:07:18;10.10;;;4.70;;
69854;SDS011;57146;48.140;16.304;2023-06-26T14:09:45;7.65;;;3.72;;
69854;SDS011;57146;48.140;16.304;2023-06-26T14:12:12;6.07;;;3.75;;
69854;SDS011;57146;48.140;16.304;2023-06-26T14:14:39;6.72;;;3.53;;
69854;SDS011;57146;48.140;16.304;2023-06-26T14:17:32;7.57;;;3.88;;
69854;SDS011;57146;48.140;16.304;2023-06-26T14:19:59;6.20;;;3.60;;
69854;SDS011;57146;48.140;16.304;2023-06-26T14:22:26;5.72;;;3.70;;
69854;SDS011;57146;48.140;16.304;2023-06-26T14:24:53;7.00;;;4.00;;
69854;SDS011;57146;48.140;16.304;2023-06-26T14:27:22;5.75;;;4.00;;
69854;SDS011;57146;48.140;16.304;2023-06-26T14:29:49;6.70;;;3.85;;
69854;SDS011;57146;48.140;16.304;2023-06-26T14:32:16;6.07;;;4.10;;
69854;SDS011;57146;48.140;16.304;2023-06-26T14:34:43;6.47;;;4.00;;
69854;SDS011;57146;48.140;16.304;2023-06-26T14:37:36;6.55;;;3.47;;
69854;SDS011;57146;48.140;16.304;2023-06-26T14:40:03;6.13;;;3.65;;
69854;SDS011;57146;48.140;16.304;2023-06-26T14:42:35;5.25;;;3.83;;
69854;SDS011;57146;48.140;16.304;2023-06-26T14:45:03;6.40;;;3.70;;
69854;SDS011;57146;48.140;16.304;2023-06-26T14:47:56;7.00;;;4.40;;
69854;SDS011;57146;48.140;16.304;2023-06-26T14:50:23;6.57;;;4.05;;
69854;SDS011;57146;48.140;16.304;2023-06-26T14:52:50;7.30;;;4.15;;
69854;SDS011;57146;48.140;16.304;2023-06-26T14:55:17;6.57;;;4.10;;
69854;SDS011;57146;48.140;16.304;2023-06-26T14:57:43;19.67;;;4.60;;
69854;SDS011;57146;48.140;16.304;2023-06-26T15:00:10;5.90;;;4.05;;
69854;SDS011;57146;48.140;16.304;2023-06-26T15:02:38;8.45;;;4.53;;
69854;SDS011;57146;48.140;16.304;2023-06-26T15:05:05;6.85;;;4.10;;
69854;SDS011;57146;48.140;16.304;2023-06-26T15:07:33;5.28;;;3.88;;